Latest Coastal Weather Observations for Strahan

IDT60701

Issued at 11:32 pm EDT Saturday 28 February 2015 (issued every 10 minutes, with the page automatically refreshed every 10 minutes)

About coastal observations | Map of coastal stations | Coastal observations for TAS | Marine services | Other Formats
Station Details ID: 097072 Name: STRAHAN AERODROME Lat: -42.16 Lon: 145.29 Height: 21.0 m
Data from the previous 72 hours. | See also: Recent months at Strahan
Date/Time
EDT
Temp

°C
Wind Pressure Rain
since 9am
mm
Weather Cloud Vis
km
Sea
Height
m
Swell
Dir
 
Speed
knots
Gust
knots
hPa Trend Height
m
Period
s
Dir
28/11:30pm 13.6 WNW 9 14 1003.7 - 6.4 - - - - - - -
28/11:00pm 13.5 W 15 20 1003.6 - 6.0 - - - - - - -
28/10:30pm 14.4 WNW 12 16 1003.3 - 5.4 - - - - - - -
28/10:00pm 15.5 WNW 12 16 1003.1 - 5.4 - - - - - - -
28/09:30pm 15.3 W 14 19 1002.5 - 5.4 - - - - - - -
28/09:00pm 15.1 W 17 23 1001.6 - 5.4 - - - - - - -
28/08:30pm 16.3 WNW 13 19 1000.7 - 5.4 - - - - - - -
28/08:00pm 16.3 NW 10 13 1000.3 - 5.4 - - - - - - -
28/07:30pm 16.3 NW 15 20 1000.0 - 5.4 - - - - - - -
28/07:00pm 17.1 NW 14 19 999.6 - 5.2 - - - - - - -
28/06:31pm 17.6 NNW 17 23 999.3 - 5.2 - Partly cloudy - - - - -
28/06:30pm 17.6 NNW 17 23 999.3 - 5.2 - Partly cloudy - - - - -
28/06:21pm 17.6 NNW 17 23 999.4 - 5.2 - Partly cloudy - - - - -
28/06:00pm 17.7 NNW 15 24 999.0 - 5.2 - Cloudy - - - - -
28/05:30pm 17.5 NNW 17 23 998.8 - 5.2 - Partly cloudy - - - - -
28/05:00pm 17.7 NNW 24 31 999.2 - 5.2 - Partly cloudy - - - - -
28/04:45pm 18.0 NNW 22 37 999.1 - 5.2 - Partly cloudy 5 - - - -
28/04:35pm 18.8 N 15 28 999.0 - 5.2 - Partly cloudy 10 - - - -
28/04:30pm 18.8 N 13 18 998.9 - 5.2 - Partly cloudy 10 - - - -
28/04:00pm 18.9 N 12 19 998.1 - 5.2 - Partly cloudy 10 - - - -
28/03:30pm 17.8 N 16 21 999.0 - 5.2 - Partly cloudy 10 - - - -
28/03:00pm 17.2 N 12 18 999.3 - 5.2 - Mostly cloudy 10 - - - -
28/02:30pm 16.3 N 11 16 999.5 - 5.2 - Partly cloudy 10 - - - -
28/02:00pm 15.4 NNE 11 19 999.7 - 5.2 - Partly cloudy 10 - - - -
28/01:35pm 14.9 NNE 11 16 1000.2 - 5.2 - Partly cloudy 10 - - - -
28/01:30pm 14.8 NNE 11 17 1000.4 - 5.2 - Partly cloudy 8 - - - -
28/01:08pm 14.3 NNE 11 17 1001.1 - 4.4 - Partly cloudy 5 - - - -
28/01:00pm 14.3 NNE 11 17 1001.1 - 4.4 - Partly cloudy 9 - - - -
28/12:48pm 14.0 NNE 11 17 1001.4 - 4.2 - Partly cloudy 5 - - - -
28/12:30pm 14.0 NNE 10 15 1001.8 - 4.2 - Cloudy 10 - - - -
28/12:15pm 13.7 NNE 7 11 1002.1 - 4.2 - Partly cloudy 10 - - - -
28/12:00pm 13.6 NNE 8 11 1002.6 - 4.0 Rain Cloudy 4 - - - -
28/11:30am 13.5 NNE 6 9 1003.1 - 3.0 - Cloudy 4 - - - -
28/11:14am 13.5 N 5 6 1003.3 - 2.4 - Cloudy 5 - - - -
28/11:13am 13.6 N 5 6 1003.3 - 2.2 - Cloudy 6 - - - -
28/11:00am 13.4 NNW 6 10 1003.1 - 2.2 - Cloudy 4 - - - -
28/10:53am 13.6 NNW 9 11 1003.3 - 1.8 - Cloudy 5 - - - -
28/10:30am 13.4 N 8 11 1002.9 - 1.0 - Partly cloudy 8 - - - -
28/10:00am 14.6 N 11 19 1002.6 - 0.0 - Partly cloudy 10 - - - -
28/09:30am 14.1 NNE 5 7 1002.6 - 0.0 - Partly cloudy 10 - - - -
28/09:00am 12.8 CALM 0 0 1002.9 - 0.0 - Mostly cloudy 10 - - - -
28/08:30am 11.3 E 3 4 1003.0 - 0.0 - - 10 - - - -
28/08:00am 9.6 CALM 0 0 1003.2 - 0.0 - - 10 - - - -
28/07:30am 8.6 NE 2 5 1003.5 - 0.0 - Partly cloudy 10 - - - -
28/07:00am 7.8 NNE 2 4 1004.1 - 0.0 - - 10 - - - -
28/06:30am 7.4 ENE 3 4 1003.8 - 0.0 - - 10 - - - -
28/06:00am 8.2 NNE 5 7 1004.4 - 0.0 - - 10 - - - -
28/05:30am 8.0 NNE 5 6 1004.7 - 0.0 - - 10 - - - -
28/05:00am 8.3 NE 4 6 1005.1 - 0.0 - - 10 - - - -
28/04:30am 7.9 NE 6 7 1005.7 - 0.0 - - 10 - - - -
28/04:00am 8.0 NNE 3 4 1006.3 - 0.0 - - 10 - - - -
28/03:30am 7.8 NE 1 4 1006.7 - 0.0 - - 10 - - - -
28/03:00am 7.9 NE 4 5 1007.4 - 0.0 - Mostly cloudy 10 - - - -
28/02:30am 8.3 NNE 5 6 1007.9 - 0.0 - - 10 - - - -
28/02:00am 7.0 NNE 3 4 1008.8 - 0.0 - - 10 - - - -
28/01:30am 7.7 NE 4 5 1009.0 - 0.0 - - 10 - - - -
28/01:00am 7.6 NE 3 4 1009.3 - 0.0 - - 10 - - - -
28/12:30am 8.2 NNE 4 5 1009.9 - 0.0 - - 10 - - - -
28/12:00am 8.1 NE 3 4 1010.0 - 0.0 - Mostly clear 44 - - - -
 
Date/Time
EDT
Temp

°C
Wind Pressure Rain
since 9am
mm
Weather Cloud Vis
km
Sea
Height
m
Swell
Dir
 
Speed
knots
Gust
knots
hPa Trend Height
m
Period
s
Dir
27/11:30pm 8.6 NNE 4 5 1010.6 - 0.0 - - 10 - - - -
27/11:00pm 9.2 NNE 5 6 1010.8 - 0.0 - - 10 - - - -
27/10:30pm 8.6 CALM 0 0 1010.9 - 0.0 - - 10 - - - -
27/10:00pm 10.1 ESE 3 4 1011.0 - 0.0 - - 10 - - - -
27/09:30pm 10.2 SW 6 7 1011.2 - 0.0 - - 10 - - - -
27/09:00pm 10.6 SSW 5 6 1011.0 - 0.0 - - 10 - - - -
27/08:30pm 11.0 SW 5 7 1010.8 - 0.0 - - 10 - - - -
27/08:00pm 12.1 SW 6 7 1010.7 - 0.0 - Partly cloudy 10 - - - -
27/07:30pm 13.9 SW 6 8 1010.5 - 0.0 - - 10 - - - -
27/07:00pm 14.9 WSW 9 12 1010.2 - 0.0 - - 10 - - - -
27/06:30pm 15.6 WSW 11 13 1010.3 - 0.0 - Partly cloudy 10 - - - -
27/06:00pm 16.2 S 5 10 1010.3 - 0.0 - - 10 - - - -
27/05:30pm 16.6 S 6 9 1010.4 - 0.0 - - 10 - - - -
27/05:00pm 16.8 S 7 11 1010.6 - 0.0 - Partly cloudy 10 - - - -
27/04:30pm 16.4 WSW 9 13 1010.8 - 0.0 - Partly cloudy 10 - - - -
27/04:00pm 15.3 SW 11 15 1011.3 - 0.0 - Partly cloudy 10 - - - -
27/03:30pm 15.1 SW 9 12 1010.7 - 0.0 - Partly cloudy 10 - - - -
27/03:00pm 15.8 SSW 7 10 1010.7 - 0.0 - Mostly cloudy 10 - - - -
27/02:30pm 15.7 WSW 10 14 1011.1 - 0.0 - Partly cloudy 10 - - - -
27/02:00pm 15.4 WSW 7 9 1011.0 - 0.0 - Cloudy 10 - - - -
27/01:30pm 15.4 WSW 7 11 1010.8 - 0.0 - Cloudy 10 - - - -
27/01:00pm 15.5 SSE 5 9 1011.2 - 0.0 - Cloudy 10 - - - -
27/12:30pm 15.6 SSE 7 10 1011.3 - 0.0 - Cloudy 10 - - - -
27/12:00pm 15.4 SSE 6 10 1011.7 - 0.0 - Cloudy 10 - - - -
27/11:30am 15.2 SSE 7 10 1011.8 - 0.0 - Partly cloudy 10 - - - -
27/11:00am 16.3 SSE 6 9 1011.2 - 0.0 - Partly cloudy 10 - - - -
27/10:30am 16.0 SSE 9 13 1011.1 - 0.0 - Partly cloudy 10 - - - -
27/10:00am 14.7 S 6 9 1011.6 - 0.0 - Partly cloudy 10 - - - -
27/09:30am 13.8 ESE 1 5 1011.4 - 0.0 - - 10 - - - -
27/09:00am 11.5 ENE 4 5 1011.3 - 0.8 - - 10 - - - -
27/08:30am 10.5 N 3 4 1011.7 - 0.8 - Partly cloudy 10 - - - -
27/08:00am 9.0 CALM 0 0 1011.4 - 0.8 - - 10 - - - -
27/07:30am 7.5 NNE 3 4 1010.7 - 0.8 - - 10 - - - -
27/07:00am 7.7 NNE 5 7 1010.2 - 0.8 - Partly cloudy 10 - - - -
27/06:30am 8.0 N 4 6 1010.6 - 0.8 - Partly cloudy 10 - - - -
27/06:00am 8.4 NNE 3 4 1010.5 - 0.8 - Mostly cloudy 10 - - - -
27/05:30am 8.5 NNE 5 7 1010.6 - 0.8 - Cloudy 10 - - - -
27/05:00am 8.5 N 3 5 1010.7 - 0.8 - Cloudy 10 - - - -
27/04:30am 8.3 N 4 4 1010.4 - 0.8 - Partly cloudy 10 - - - -
27/04:00am 8.5 NE 3 4 1010.2 - 0.8 - Cloudy 10 - - - -
27/03:30am 8.4 NNE 3 4 1010.4 - 0.8 - Cloudy 10 - - - -
27/03:00am 8.0 NE 4 5 1010.2 - 0.8 - Mostly clear 10 - - - -
27/02:30am 8.1 ENE 4 6 1010.4 - 0.8 - Partly cloudy 10 - - - -
27/02:00am 7.9 ENE 2 4 1010.8 - 0.8 - Partly cloudy 10 - - - -
27/01:30am 9.1 E 5 6 1010.9 - 0.8 - Partly cloudy 10 - - - -
27/01:00am 9.5 SE 7 9 1011.1 - 0.8 - - 10 - - - -
27/12:30am 10.1 SE 7 10 1010.9 - 0.8 - - 10 - - - -
27/12:00am 10.3 SE 7 9 1011.3 - 0.8 - Mostly clear 10 - - - -
 
Date/Time
EDT
Temp

°C
Wind Pressure Rain
since 9am
mm
Weather Cloud Vis
km
Sea
Height
m
Swell
Dir
 
Speed
knots
Gust
knots
hPa Trend Height
m
Period
s
Dir
26/11:30pm 11.2 SSE 9 13 1011.3 - 0.8 - - 10 - - - -
26/11:00pm 10.7 SE 8 11 1011.3 - 0.8 - - 10 - - - -
26/10:30pm 11.9 SSE 11 17 1011.7 - 0.8 - Partly cloudy 10 - - - -
26/10:00pm 12.5 SSE 10 16 1012.0 - 0.8 - Cloudy 10 - - - -
26/09:30pm 12.5 S 10 13 1011.7 - 0.8 - Partly cloudy 10 - - - -
26/09:00pm 12.6 SSW 9 13 1011.3 - 0.8 - Cloudy 10 - - - -
26/08:30pm 11.3 SSW 8 11 1010.7 - 0.8 - - 10 - - - -
26/08:00pm 12.2 SW 8 10 1010.2 - 0.8 - - 10 - - - -
26/07:30pm 14.0 SW 7 10 1009.9 - 0.8 - Partly cloudy 10 - - - -
26/07:00pm 14.6 SE 7 9 1009.7 - 0.8 - Cloudy 10 - - - -
26/06:30pm 15.4 SE 9 11 1009.5 - 0.8 - Partly cloudy 10 - - - -
26/06:00pm 16.0 SSE 7 11 1009.3 - 0.8 - Cloudy 10 - - - -
26/05:30pm 16.6 SSE 10 13 1009.2 - 0.8 - Partly cloudy 10 - - - -
26/05:00pm 16.0 S 9 12 1009.2 - 0.8 - Partly cloudy 10 - - - -
26/04:30pm 17.1 SSE 9 13 1009.1 - 0.8 - Partly cloudy 10 - - - -
26/04:00pm 16.0 SSE 10 14 1009.3 - 0.8 - Cloudy 10 - - - -
26/03:55pm 15.3 SSE 9 13 1009.4 - 0.8 - Partly cloudy 10 - - - -
26/03:30pm 14.9 SSE 9 14 1009.6 - 0.8 - Cloudy 10 - - - -
26/03:00pm 14.9 SSE 8 14 1009.4 - 0.8 - Cloudy 10 - - - -
26/02:30pm 15.3 SSE 9 12 1009.3 - 0.8 - Partly cloudy 10 - - - -
26/02:14pm 15.2 S 9 13 1009.3 - 0.8 - Partly cloudy 10 - - - -
26/02:00pm 14.7 SSW 11 16 1009.3 - 0.8 - Partly cloudy 10 - - - -
26/01:56pm 14.6 SSW 12 16 1009.3 - 0.8 - Partly cloudy 10 - - - -
26/01:38pm 14.5 SSW 13 18 1009.2 - 0.8 - Partly cloudy 5 - - - -
26/01:30pm 14.7 S 13 18 1009.1 - 0.6 - Partly cloudy 10 - - - -
26/01:03pm 15.1 SSW 13 18 1009.0 - 0.6 - Partly cloudy 7 - - - -
26/01:00pm 15.6 SW 12 16 1008.9 - 0.6 - Partly cloudy 6 - - - -
26/12:41pm 16.3 WNW 11 13 1008.8 - 0.6 - Partly cloudy 5 - - - -
26/12:30pm 16.2 NW 10 14 1008.8 - 0.6 - Cloudy 10 - - - -
26/12:15pm 16.4 WNW 11 13 1008.9 - 0.6 - Cloudy 10 - - - -
26/12:00pm 16.4 WNW 9 12 1009.0 - 0.6 Rain Cloudy 5 - - - -
26/11:48am 16.4 WNW 9 13 1009.0 - 0.4 - Partly cloudy 5 - - - -
26/11:30am 16.4 WNW 7 11 1009.1 - 0.0 - Partly cloudy 10 - - - -
26/11:16am 16.5 NW 9 13 1009.2 - 0.0 - Partly cloudy 6 - - - -
26/11:00am 16.7 WNW 9 11 1009.2 - 0.0 - Partly cloudy 10 - - - -
26/10:30am 16.7 WNW 9 13 1009.3 - 0.0 - Partly cloudy 10 - - - -
26/10:00am 16.3 WNW 10 13 1009.1 - 0.0 - Partly cloudy 10 - - - -
26/09:30am 16.5 WNW 9 12 1008.7 - 0.0 - Partly cloudy 10 - - - -
26/09:20am 16.5 WNW 7 11 1008.6 - 0.0 - Partly cloudy 10 - - - -
26/09:18am 16.5 WNW 8 11 1008.6 - 0.0 - Partly cloudy 10 - - - -
26/09:00am 16.0 NW 9 13 1008.5 - 5.8 Recent precip. Cloudy 9 - - - -
26/08:40am 15.0 N 7 11 1008.4 - 5.8 - Partly cloudy 10 - - - -
26/08:30am 15.0 N 9 11 1008.3 - 5.8 - Partly cloudy 5 - - - -
26/08:00am 14.5 N 7 10 1008.2 - 4.2 - Partly cloudy 2 - - - -
26/07:43am 14.7 NW 6 9 1008.0 - 2.6 - Partly cloudy 2 - - - -
26/07:30am 14.9 N 9 11 1007.7 - 1.6 - Partly cloudy 4 - - - -
26/07:24am 15.0 N 9 12 1007.6 - 1.6 - Partly cloudy 5 - - - -
26/07:00am 14.8 N 7 8 1007.4 - 1.6 - Partly cloudy 10 - - - -
26/06:30am 14.4 NNE 7 9 1007.4 - 1.4 - Partly cloudy 10 - - - -
26/06:00am 14.2 NNE 5 7 1007.4 - 1.4 Recent precip. Cloudy 10 - - - -
26/05:30am 14.0 NNE 5 6 1007.6 - 1.4 - Partly cloudy 6 - - - -
26/05:00am 14.2 N 4 6 1007.6 - 0.6 - Partly cloudy 8 - - - -
26/04:30am 14.5 NNW 6 7 1008.1 - 0.4 - Partly cloudy 9 - - - -
26/04:00am 14.2 NNW 5 7 1008.0 - 0.4 - Partly cloudy 10 - - - -
26/03:30am 14.9 NW 5 7 1008.3 - 0.0 - Partly cloudy 10 - - - -
26/03:00am 15.4 NW 5 6 1008.9 - 0.0 - Cloudy 10 - - - -
26/02:30am 15.8 NNW 6 9 1009.0 - 0.0 - Partly cloudy 10 - - - -
26/02:00am 15.7 NNE 8 13 1009.5 - 0.0 - Partly cloudy 10 - - - -
26/01:30am 15.0 NNE 9 14 1009.7 - 0.0 - Cloudy 10 - - - -
26/01:00am 14.8 NNE 8 11 1010.3 - 0.0 - Partly cloudy 10 - - - -
26/12:30am 14.3 NNE 8 11 1010.7 - 0.0 - - 10 - - - -
26/12:00am 14.5 NNE 8 13 1011.3 - 0.0 - - 10 - - - -

Other Formats:

Comma delimited format used in spreadsheet applications
http://www.bom.gov.au/fwo/IDT60701/IDT60701.94956.axf

JavaScript Object Notation format (JSON) in row-major order
http://www.bom.gov.au/fwo/IDT60701/IDT60701.94956.json